createdAt,value
2023-04-17T00:00:44.218Z,100.00
2023-04-17T00:01:41.015Z,100.00
2023-04-17T00:02:40.068Z,100.00
2023-04-17T00:03:37.971Z,100.00
2023-04-17T00:04:34.930Z,100.00
2023-04-17T00:05:33.830Z,100.00
2023-04-17T00:06:33.860Z,100.00
2023-04-17T00:07:30.595Z,100.00
2023-04-17T00:08:27.296Z,100.00
2023-04-17T00:09:24.053Z,100.00
2023-04-17T00:10:20.760Z,100.00
2023-04-17T00:11:18.766Z,100.00
2023-04-17T00:12:16.211Z,100.00
2023-04-17T00:13:12.892Z,100.00
2023-04-17T00:14:09.654Z,100.00
2023-04-17T00:15:07.361Z,100.00
2023-04-17T00:16:04.401Z,100.00
2023-04-17T00:17:01.136Z,100.00
2023-04-17T00:17:57.911Z,100.00
2023-04-17T00:18:55.216Z,100.00
2023-04-17T00:19:52.069Z,100.00
2023-04-17T00:20:49.844Z,100.00
2023-04-17T00:21:46.656Z,100.00
2023-04-17T00:22:43.856Z,100.00
2023-04-17T00:23:40.791Z,100.00
2023-04-17T00:24:37.554Z,100.00
2023-04-17T00:25:34.244Z,100.00
2023-04-17T00:26:32.462Z,100.00
2023-04-17T00:27:29.310Z,100.00
2023-04-17T00:28:26.086Z,100.00
2023-04-17T00:29:22.870Z,100.00
2023-04-17T00:30:19.765Z,100.00
2023-04-17T00:31:16.903Z,100.00
2023-04-17T00:32:13.779Z,100.00
2023-04-17T00:33:10.564Z,100.00
2023-04-17T00:34:07.275Z,100.00
2023-04-17T00:35:04.373Z,100.00
2023-04-17T00:36:01.122Z,100.00
2023-04-17T00:36:59.263Z,100.00
2023-04-17T00:37:56.060Z,100.00
2023-04-17T00:38:52.902Z,100.00
2023-04-17T00:39:49.631Z,100.00
2023-04-17T00:40:46.600Z,100.00
2023-04-17T00:41:43.353Z,100.00
2023-04-17T00:42:40.069Z,100.00
2023-04-17T00:43:37.048Z,100.00
2023-04-17T00:44:33.887Z,100.00
2023-04-17T00:45:31.741Z,100.00
2023-04-17T00:46:28.531Z,100.00
2023-04-17T00:47:26.467Z,100.00
2023-04-17T00:48:24.291Z,100.00
2023-04-17T00:49:21.917Z,100.00
2023-04-17T00:50:18.965Z,100.00
2023-04-17T00:51:16.087Z,100.00
2023-04-17T00:52:23.810Z,100.00
2023-04-17T00:53:20.819Z,100.00
2023-04-17T00:54:19.229Z,100.00
2023-04-17T00:55:16.211Z,100.00
2023-04-17T00:56:13.744Z,100.00
2023-04-17T00:57:10.761Z,100.00
2023-04-17T00:58:07.932Z,100.00
2023-04-17T00:59:11.827Z,100.00
2023-04-17T01:00:10.284Z,100.00
2023-04-17T01:01:07.226Z,100.00
2023-04-17T01:02:04.679Z,100.00
2023-04-17T01:03:02.086Z,100.00
2023-04-17T01:04:01.906Z,100.00
2023-04-17T01:04:58.739Z,100.00
2023-04-17T01:05:56.325Z,100.00
2023-04-17T01:06:53.756Z,100.00
2023-04-17T01:07:51.213Z,100.00
2023-04-17T01:08:48.283Z,100.00
2023-04-17T01:09:45.299Z,100.00
2023-04-17T01:10:42.062Z,100.00
2023-04-17T01:11:39.545Z,100.00
2023-04-17T01:12:36.689Z,100.00
2023-04-17T01:13:33.438Z,100.00
2023-04-17T01:14:30.407Z,100.00
2023-04-17T01:15:27.134Z,100.00
2023-04-17T01:16:23.938Z,100.00
2023-04-17T01:17:22.100Z,100.00
2023-04-17T01:18:18.957Z,100.00
2023-04-17T01:19:17.177Z,100.00
2023-04-17T01:20:13.949Z,100.00
2023-04-17T01:21:11.030Z,100.00
2023-04-17T01:22:08.478Z,100.00
2023-04-17T01:23:05.197Z,100.00
2023-04-17T01:24:05.403Z,100.00
2023-04-17T01:25:02.909Z,100.00
2023-04-17T01:25:59.670Z,100.00
2023-04-17T01:26:56.460Z,100.00
2023-04-17T01:27:53.743Z,100.00
2023-04-17T01:28:58.887Z,100.00
2023-04-17T01:29:55.649Z,100.00
2023-04-17T01:30:52.459Z,100.00
2023-04-17T01:31:49.272Z,100.00
2023-04-17T01:32:46.118Z,100.00
2023-04-17T01:33:42.924Z,100.00
2023-04-17T01:34:39.662Z,100.00
2023-04-17T01:35:36.373Z,100.00
2023-04-17T01:36:33.103Z,100.00
2023-04-17T01:37:30.084Z,100.00
2023-04-17T01:38:26.793Z,100.00
2023-04-17T01:39:23.621Z,100.00
2023-04-17T01:40:20.539Z,100.00
2023-04-17T01:41:17.276Z,100.00
2023-04-17T01:42:14.082Z,100.00
2023-04-17T01:43:10.780Z,100.00
2023-04-17T01:44:07.505Z,100.00
2023-04-17T01:45:05.676Z,100.00
2023-04-17T01:46:02.546Z,100.00
2023-04-17T01:46:59.433Z,100.00
2023-04-17T01:47:56.249Z,100.00
2023-04-17T01:48:53.132Z,100.00
2023-04-17T01:49:49.926Z,100.00
2023-04-17T01:50:46.793Z,100.00
2023-04-17T01:51:43.602Z,100.00
2023-04-17T01:52:40.564Z,100.00
2023-04-17T01:53:40.354Z,100.00
2023-04-17T01:54:37.054Z,100.00
2023-04-17T01:55:33.788Z,100.00
2023-04-17T01:56:30.920Z,100.00
2023-04-17T01:57:28.156Z,100.00
2023-04-17T01:58:24.933Z,100.00
2023-04-17T01:59:21.640Z,100.00
2023-04-17T02:00:18.859Z,100.00
2023-04-17T02:01:15.814Z,100.00
2023-04-17T02:02:31.250Z,100.00
2023-04-17T02:03:28.392Z,100.00
2023-04-17T02:04:25.359Z,100.00
2023-04-17T02:05:22.195Z,100.00
2023-04-17T02:06:18.950Z,100.00
2023-04-17T02:07:16.711Z,100.00
2023-04-17T02:08:14.343Z,100.00
2023-04-17T02:09:11.835Z,100.00
2023-04-17T02:10:09.289Z,100.00
2023-04-17T02:11:06.083Z,100.00
2023-04-17T02:12:02.826Z,100.00
2023-04-17T02:12:59.605Z,100.00
2023-04-17T02:13:56.389Z,100.00
2023-04-17T02:14:53.130Z,100.00
2023-04-17T02:15:49.889Z,100.00
2023-04-17T02:16:46.774Z,100.00
2023-04-17T02:17:43.524Z,100.00
2023-04-17T02:18:41.418Z,100.00
2023-04-17T02:19:38.231Z,100.00
2023-04-17T02:20:36.570Z,100.00
2023-04-17T02:21:33.297Z,100.00
2023-04-17T02:22:30.016Z,100.00
2023-04-17T02:23:26.751Z,100.00
2023-04-17T02:24:23.506Z,100.00
2023-04-17T02:25:20.785Z,100.00
2023-04-17T02:26:17.604Z,100.00
2023-04-17T02:27:14.316Z,100.00
2023-04-17T02:28:11.438Z,100.00
2023-04-17T02:29:08.221Z,100.00
2023-04-17T02:30:05.399Z,100.00
2023-04-17T02:31:02.363Z,100.00
2023-04-17T02:31:59.139Z,100.00
2023-04-17T02:32:56.633Z,100.00
2023-04-17T02:33:53.420Z,100.00
2023-04-17T02:34:50.299Z,100.00
2023-04-17T02:35:47.140Z,100.00
2023-04-17T02:36:43.903Z,100.00
2023-04-17T02:37:40.758Z,100.00
2023-04-17T02:38:37.898Z,100.00
2023-04-17T02:39:35.443Z,100.00
2023-04-17T02:40:32.178Z,100.00
2023-04-17T02:41:28.878Z,100.00
2023-04-17T02:42:25.713Z,100.00
2023-04-17T02:43:22.436Z,100.00
2023-04-17T02:44:19.132Z,100.00
2023-04-17T02:45:16.058Z,100.00
2023-04-17T02:46:12.797Z,100.00
2023-04-17T02:47:09.527Z,100.00
2023-04-17T02:48:06.608Z,100.00
2023-04-17T02:49:03.500Z,100.00
2023-04-17T02:50:00.447Z,100.00
2023-04-17T02:50:57.252Z,100.00
2023-04-17T02:51:53.973Z,100.00
2023-04-17T02:52:50.700Z,100.00
2023-04-17T02:53:49.147Z,100.00
2023-04-17T02:54:46.040Z,100.00
2023-04-17T02:55:42.771Z,100.00
2023-04-17T02:56:39.793Z,100.00
2023-04-17T02:57:36.511Z,100.00
2023-04-17T02:58:33.254Z,100.00
2023-04-17T02:59:30.029Z,100.00
2023-04-17T03:00:28.032Z,100.00
2023-04-17T03:01:24.825Z,100.00
2023-04-17T03:02:22.481Z,100.00
2023-04-17T03:03:19.643Z,100.00
2023-04-17T03:04:16.641Z,100.00
2023-04-17T03:05:15.107Z,100.00
2023-04-17T03:06:11.863Z,100.00
2023-04-17T03:07:10.437Z,100.00
2023-04-17T03:08:07.336Z,100.00
2023-04-17T03:09:04.485Z,100.00
2023-04-17T03:10:01.273Z,100.00
2023-04-17T03:10:58.046Z,100.00
2023-04-17T03:11:54.876Z,100.00
2023-04-17T03:12:51.622Z,100.00
2023-04-17T03:13:48.933Z,100.00
2023-04-17T03:14:45.761Z,100.00
2023-04-17T03:15:42.591Z,100.00
2023-04-17T03:16:39.293Z,100.00
2023-04-17T03:17:36.185Z,100.00
2023-04-17T03:18:35.001Z,100.00
2023-04-17T03:19:31.730Z,100.00
2023-04-17T03:20:28.455Z,100.00
2023-04-17T03:21:26.674Z,100.00
2023-04-17T03:22:23.343Z,100.00
2023-04-17T03:23:20.090Z,100.00
2023-04-17T03:24:16.847Z,100.00
2023-04-17T03:25:32.405Z,100.00
2023-04-17T03:26:29.176Z,100.00
2023-04-17T03:27:26.432Z,100.00
2023-04-17T03:28:23.983Z,100.00
2023-04-17T03:29:20.917Z,100.00
2023-04-17T03:30:17.678Z,100.00
2023-04-17T03:31:14.565Z,100.00
2023-04-17T03:32:11.440Z,100.00
2023-04-17T03:33:08.248Z,100.00
2023-04-17T03:34:04.939Z,100.00
2023-04-17T03:35:01.825Z,100.00
2023-04-17T03:35:58.636Z,100.00
2023-04-17T03:36:55.837Z,100.00
2023-04-17T03:37:52.771Z,100.00
2023-04-17T03:38:49.493Z,100.00
2023-04-17T03:39:46.254Z,100.00
2023-04-17T03:40:43.724Z,100.00
2023-04-17T03:41:40.854Z,100.00
2023-04-17T03:42:37.585Z,100.00
2023-04-17T03:43:34.307Z,100.00
2023-04-17T03:44:31.237Z,100.00
2023-04-17T03:45:28.059Z,100.00
2023-04-17T03:46:24.974Z,100.00
2023-04-17T03:47:21.866Z,100.00
2023-04-17T03:48:18.990Z,100.00
2023-04-17T03:49:15.908Z,100.00
2023-04-17T03:50:12.719Z,100.00
2023-04-17T03:51:09.657Z,100.00
2023-04-17T03:52:06.495Z,100.00
2023-04-17T03:53:03.228Z,100.00
2023-04-17T03:54:00.005Z,100.00
2023-04-17T03:54:57.004Z,100.00
2023-04-17T03:55:53.811Z,100.00
2023-04-17T03:56:50.650Z,100.00
2023-04-17T03:57:48.577Z,100.00
2023-04-17T03:58:45.426Z,100.00
2023-04-17T03:59:42.147Z,100.00
2023-04-17T04:00:39.056Z,100.00
2023-04-17T04:01:38.683Z,100.00
2023-04-17T04:02:35.489Z,100.00
2023-04-17T04:03:32.724Z,100.00
2023-04-17T04:04:29.848Z,100.00
2023-04-17T04:05:26.722Z,100.00
2023-04-17T04:06:23.494Z,100.00
2023-04-17T04:07:21.441Z,100.00
2023-04-17T04:08:18.271Z,100.00
2023-04-17T04:09:15.148Z,100.00
2023-04-17T04:10:11.918Z,100.00
2023-04-17T04:11:08.686Z,100.00
2023-04-17T04:12:05.523Z,100.00
2023-04-17T04:13:02.280Z,100.00
2023-04-17T04:13:59.052Z,100.00
2023-04-17T04:14:55.827Z,100.00
2023-04-17T04:15:52.724Z,100.00
2023-04-17T04:16:49.700Z,100.00
2023-04-17T04:17:46.441Z,100.00
2023-04-17T04:18:43.398Z,100.00
2023-04-17T04:19:40.316Z,100.00
2023-04-17T04:20:37.110Z,100.00
2023-04-17T04:21:34.514Z,100.00
2023-04-17T04:22:31.269Z,100.00
2023-04-17T04:23:28.218Z,100.00
2023-04-17T04:24:25.630Z,100.00
2023-04-17T04:25:22.882Z,100.00
2023-04-17T04:26:21.778Z,100.00
2023-04-17T04:27:18.718Z,100.00
2023-04-17T04:28:15.529Z,100.00
2023-04-17T04:29:13.840Z,100.00
2023-04-17T04:30:12.500Z,100.00
2023-04-17T04:31:09.818Z,100.00
2023-04-17T04:32:09.861Z,100.00
2023-04-17T04:33:08.447Z,100.00
2023-04-17T04:34:06.088Z,100.00
2023-04-17T04:35:03.187Z,100.00
2023-04-17T04:36:01.371Z,100.00
2023-04-17T04:36:58.451Z,100.00
2023-04-17T04:38:02.063Z,100.00
2023-04-17T04:38:59.908Z,100.00
2023-04-17T04:40:10.687Z,100.00
2023-04-17T04:41:10.471Z,100.00
2023-04-17T04:42:09.974Z,100.00
2023-04-17T04:43:07.020Z,100.00
2023-04-17T04:44:03.790Z,100.00
2023-04-17T04:45:00.749Z,100.00
2023-04-17T04:45:57.552Z,100.00
2023-04-17T04:46:55.513Z,100.00
2023-04-17T04:47:52.697Z,100.00
2023-04-17T04:48:49.586Z,100.00
2023-04-17T04:49:46.293Z,100.00
2023-04-17T04:50:43.032Z,100.00
2023-04-17T04:51:40.077Z,100.00
2023-04-17T04:52:36.812Z,100.00
2023-04-17T04:53:33.681Z,100.00
2023-04-17T04:54:30.538Z,100.00
2023-04-17T04:55:27.345Z,100.00
2023-04-17T04:56:24.093Z,100.00
2023-04-17T04:57:20.871Z,100.00
2023-04-17T04:58:17.574Z,100.00
2023-04-17T04:59:14.292Z,100.00
2023-04-17T05:00:13.327Z,100.00
2023-04-17T05:01:10.229Z,100.00
2023-04-17T05:02:07.306Z,100.00
2023-04-17T05:03:04.406Z,100.00
2023-04-17T05:04:01.669Z,100.00
2023-04-17T05:04:58.648Z,100.00
2023-04-17T05:05:55.515Z,100.00
2023-04-17T05:06:52.483Z,100.00
2023-04-17T05:07:49.247Z,100.00
2023-04-17T05:08:46.032Z,100.00
2023-04-17T05:09:42.998Z,100.00
2023-04-17T05:10:39.811Z,100.00
2023-04-17T05:11:36.633Z,100.00
2023-04-17T05:12:35.073Z,100.00
2023-04-17T05:13:31.924Z,100.00
2023-04-17T05:14:28.663Z,100.00
2023-04-17T05:15:25.728Z,100.00
2023-04-17T05:16:22.506Z,100.00
2023-04-17T05:17:19.313Z,100.00
2023-04-17T05:18:16.063Z,100.00
2023-04-17T05:19:13.004Z,100.00
2023-04-17T05:20:10.582Z,100.00
2023-04-17T05:21:07.269Z,100.00
2023-04-17T05:22:04.054Z,100.00
2023-04-17T05:23:00.917Z,100.00
2023-04-17T05:23:57.768Z,100.00
2023-04-17T05:24:54.578Z,100.00
2023-04-17T05:25:51.336Z,100.00
2023-04-17T05:26:48.183Z,100.00
2023-04-17T05:27:45.014Z,100.00
2023-04-17T05:28:41.769Z,100.00
2023-04-17T05:29:38.662Z,100.00
2023-04-17T05:30:35.468Z,100.00
2023-04-17T05:31:32.272Z,100.00
2023-04-17T05:32:31.188Z,100.00
2023-04-17T05:33:27.999Z,100.00
2023-04-17T05:34:24.888Z,100.00
2023-04-17T05:35:21.721Z,100.00
2023-04-17T05:36:18.535Z,100.00
2023-04-17T05:37:15.569Z,100.00
2023-04-17T05:38:12.369Z,100.00
2023-04-17T05:39:09.171Z,100.00
2023-04-17T05:40:07.221Z,100.00
2023-04-17T05:41:04.034Z,100.00
2023-04-17T05:42:01.575Z,100.00
2023-04-17T05:42:58.332Z,100.00
2023-04-17T05:43:55.097Z,100.00
2023-04-17T05:44:52.027Z,100.00
2023-04-17T05:45:49.272Z,100.00
2023-04-17T05:46:46.274Z,100.00
2023-04-17T05:47:43.161Z,100.00
2023-04-17T05:48:39.906Z,100.00
2023-04-17T05:49:36.669Z,100.00
2023-04-17T05:50:33.521Z,100.00
2023-04-17T05:51:30.234Z,100.00
2023-04-17T05:52:27.015Z,100.00
2023-04-17T05:53:23.947Z,100.00
2023-04-17T05:54:20.747Z,100.00
2023-04-17T05:55:20.046Z,100.00
2023-04-17T05:56:17.027Z,100.00
2023-04-17T05:57:13.849Z,100.00
2023-04-17T05:58:22.980Z,100.00
2023-04-17T05:59:21.162Z,100.00
2023-04-17T06:00:18.663Z,100.00
2023-04-17T06:01:18.092Z,100.00
2023-04-17T06:02:16.295Z,100.00
2023-04-17T06:03:13.307Z,100.00
2023-04-17T06:04:10.824Z,100.00
2023-04-17T06:05:08.678Z,100.00
2023-04-17T06:06:05.780Z,100.00
2023-04-17T06:07:06.310Z,100.00
2023-04-17T06:08:04.017Z,100.00
2023-04-17T06:09:00.968Z,100.00
2023-04-17T06:09:58.150Z,100.00
2023-04-17T06:10:56.219Z,100.00
2023-04-17T06:11:53.102Z,100.00
2023-04-17T06:12:49.923Z,100.00
2023-04-17T06:13:47.552Z,100.00
2023-04-17T06:14:44.410Z,100.00
2023-04-17T06:15:41.205Z,100.00
2023-04-17T06:16:38.019Z,100.00
2023-04-17T06:17:36.664Z,100.00
2023-04-17T06:18:33.616Z,100.00
2023-04-17T06:19:30.471Z,100.00
2023-04-17T06:20:27.424Z,100.00
2023-04-17T06:21:24.240Z,100.00
2023-04-17T06:22:21.089Z,100.00
2023-04-17T06:23:17.957Z,100.00
2023-04-17T06:24:14.881Z,100.00
2023-04-17T06:25:11.707Z,100.00
2023-04-17T06:26:08.641Z,100.00
2023-04-17T06:27:05.435Z,100.00
2023-04-17T06:28:02.350Z,100.00
2023-04-17T06:28:59.280Z,100.00
2023-04-17T06:29:56.043Z,100.00
2023-04-17T06:30:52.793Z,100.00
2023-04-17T06:31:49.770Z,100.00
2023-04-17T06:32:46.520Z,100.00
2023-04-17T06:33:43.720Z,100.00
2023-04-17T06:34:52.487Z,100.00
2023-04-17T06:35:56.107Z,100.00
2023-04-17T06:36:53.528Z,100.00
2023-04-17T06:37:50.655Z,100.00
2023-04-17T06:38:47.416Z,100.00
2023-04-17T06:39:44.271Z,100.00
2023-04-17T06:40:41.657Z,100.00
2023-04-17T06:41:38.465Z,100.00
2023-04-17T06:42:35.798Z,100.00
2023-04-17T06:43:32.631Z,100.00
2023-04-17T06:44:29.378Z,100.00
2023-04-17T06:45:26.221Z,100.00
2023-04-17T06:46:23.405Z,100.00
2023-04-17T06:47:20.481Z,100.00
2023-04-17T06:48:17.271Z,100.00
2023-04-17T06:49:14.323Z,100.00
2023-04-17T06:50:11.337Z,100.00
2023-04-17T06:51:08.087Z,100.00
2023-04-17T06:52:05.522Z,100.00
2023-04-17T06:53:02.235Z,100.00
2023-04-17T06:53:59.381Z,100.00
2023-04-17T06:54:56.946Z,100.00
2023-04-17T06:55:54.457Z,100.00
2023-04-17T06:56:51.307Z,100.00
2023-04-17T06:57:48.079Z,100.00
2023-04-17T06:58:45.840Z,100.00
2023-04-17T06:59:42.604Z,100.00
2023-04-17T07:00:39.387Z,100.00
2023-04-17T07:01:38.124Z,100.00
2023-04-17T07:02:35.049Z,100.00
2023-04-17T07:03:32.185Z,100.00
2023-04-17T07:04:30.714Z,100.00
2023-04-17T07:05:27.552Z,100.00
2023-04-17T07:06:24.420Z,100.00
2023-04-17T07:07:21.641Z,100.00
2023-04-17T07:08:22.328Z,100.00
2023-04-17T07:09:19.160Z,100.00
2023-04-17T07:10:16.085Z,100.00
2023-04-17T07:11:13.026Z,100.00
2023-04-17T07:12:09.873Z,100.00
2023-04-17T07:13:07.048Z,100.00
2023-04-17T07:14:03.839Z,100.00
2023-04-17T07:15:00.760Z,100.00
2023-04-17T07:15:58.524Z,100.00
2023-04-17T07:16:55.697Z,100.00
2023-04-17T07:17:52.518Z,100.00
2023-04-17T07:18:52.863Z,100.00
2023-04-17T07:19:49.659Z,100.00
2023-04-17T07:20:46.492Z,100.00
2023-04-17T07:21:43.248Z,100.00
2023-04-17T07:22:40.103Z,100.00
2023-04-17T07:23:36.961Z,100.00
2023-04-17T07:24:36.863Z,100.00
2023-04-17T07:25:33.656Z,100.00
2023-04-17T07:26:30.443Z,100.00
2023-04-17T07:27:27.225Z,100.00
2023-04-17T07:28:25.139Z,100.00
2023-04-17T07:29:21.882Z,100.00
2023-04-17T07:30:18.802Z,100.00
2023-04-17T07:31:15.675Z,100.00
2023-04-17T07:32:13.251Z,100.00
2023-04-17T07:33:10.443Z,100.00
2023-04-17T07:34:07.296Z,100.00
2023-04-17T07:35:04.595Z,100.00
2023-04-17T07:36:01.723Z,100.00
2023-04-17T07:36:58.443Z,100.00
2023-04-17T07:37:58.118Z,100.00
2023-04-17T07:38:54.897Z,100.00
2023-04-17T07:39:52.821Z,100.00
2023-04-17T07:40:49.865Z,100.00
2023-04-17T07:41:46.702Z,100.00
2023-04-17T07:42:43.573Z,100.00
2023-04-17T07:43:41.189Z,100.00
2023-04-17T07:44:41.117Z,100.00
2023-04-17T07:45:39.198Z,100.00
2023-04-17T07:46:37.962Z,100.00
2023-04-17T07:47:34.914Z,100.00
2023-04-17T07:48:31.667Z,100.00
2023-04-17T07:49:28.436Z,100.00
2023-04-17T07:50:25.264Z,100.00
2023-04-17T07:51:22.046Z,100.00
2023-04-17T07:52:18.902Z,100.00
2023-04-17T07:53:15.774Z,100.00
2023-04-17T07:54:12.568Z,100.00
2023-04-17T07:55:09.585Z,100.00
2023-04-17T07:56:06.657Z,100.00
2023-04-17T07:57:03.565Z,100.00
2023-04-17T07:58:03.878Z,100.00
2023-04-17T07:59:00.987Z,100.00
2023-04-17T07:59:57.761Z,100.00
2023-04-17T08:00:54.945Z,100.00
2023-04-17T08:01:52.655Z,100.00
2023-04-17T08:02:49.766Z,100.00
2023-04-17T08:03:47.338Z,100.00
2023-04-17T08:04:44.906Z,100.00
2023-04-17T08:05:41.947Z,100.00
2023-04-17T08:06:39.103Z,100.00
2023-04-17T08:07:36.633Z,100.00
2023-04-17T08:08:33.740Z,100.00
2023-04-17T08:09:30.561Z,100.00
2023-04-17T08:10:28.523Z,100.00
2023-04-17T08:11:25.482Z,100.00
2023-04-17T08:12:22.246Z,100.00
2023-04-17T08:13:19.179Z,100.00
2023-04-17T08:14:17.419Z,100.00
2023-04-17T08:15:14.244Z,100.00
2023-04-17T08:16:11.113Z,100.00
2023-04-17T08:17:08.988Z,100.00
2023-04-17T08:18:05.897Z,100.00
2023-04-17T08:19:02.674Z,100.00
2023-04-17T08:20:00.729Z,100.00
2023-04-17T08:20:57.508Z,100.00
2023-04-17T08:22:04.550Z,100.00
2023-04-17T08:23:01.466Z,100.00
2023-04-17T08:23:58.228Z,100.00
2023-04-17T08:24:59.786Z,100.00
2023-04-17T08:25:56.552Z,100.00
2023-04-17T08:26:53.393Z,100.00
2023-04-17T08:27:50.584Z,100.00
2023-04-17T08:28:47.494Z,100.00
2023-04-17T08:29:44.276Z,100.00
2023-04-17T08:30:41.133Z,100.00
2023-04-17T08:31:39.884Z,100.00
2023-04-17T08:32:45.601Z,100.00
2023-04-17T08:33:42.379Z,100.00
2023-04-17T08:34:39.126Z,100.00
2023-04-17T08:35:36.026Z,100.00
2023-04-17T08:36:33.012Z,100.00
2023-04-17T08:37:31.016Z,100.00
2023-04-17T08:38:29.491Z,100.00
2023-04-17T08:39:27.205Z,100.00
2023-04-17T08:40:26.196Z,100.00
2023-04-17T08:41:27.944Z,100.00
2023-04-17T08:42:25.905Z,100.00
2023-04-17T08:43:26.180Z,100.00
2023-04-17T08:44:22.984Z,100.00
2023-04-17T08:45:22.888Z,100.00
2023-04-17T08:46:22.769Z,100.00
2023-04-17T08:47:19.649Z,100.00
2023-04-17T08:48:16.456Z,100.00
2023-04-17T08:49:13.640Z,100.00
2023-04-17T08:50:16.838Z,100.00
2023-04-17T08:51:15.732Z,100.00
2023-04-17T08:52:12.476Z,100.00
2023-04-17T08:53:09.192Z,100.00
2023-04-17T08:54:06.247Z,100.00
2023-04-17T08:55:03.383Z,100.00
2023-04-17T08:56:08.336Z,100.00
2023-04-17T08:57:06.258Z,100.00
2023-04-17T08:58:04.674Z,100.00
2023-04-17T08:59:01.694Z,100.00
2023-04-17T08:59:58.460Z,100.00
2023-04-17T09:00:55.991Z,100.00
2023-04-17T09:02:02.181Z,100.00
2023-04-17T09:03:02.032Z,100.00
2023-04-17T09:03:59.008Z,100.00
2023-04-17T09:04:56.055Z,100.00
2023-04-17T09:05:57.624Z,100.00
2023-04-17T09:06:54.636Z,100.00
2023-04-17T09:08:09.050Z,100.00
2023-04-17T09:09:06.249Z,100.00
2023-04-17T09:10:02.960Z,100.00
2023-04-17T09:10:59.700Z,100.00
2023-04-17T09:12:10.186Z,100.00
2023-04-17T09:13:09.128Z,100.00
2023-04-17T09:14:05.840Z,100.00
2023-04-17T09:15:16.595Z,100.00
2023-04-17T09:16:15.829Z,100.00
2023-04-17T09:17:17.429Z,100.00
2023-04-17T09:18:32.722Z,100.00
2023-04-17T09:19:29.522Z,100.00
2023-04-17T09:20:26.580Z,100.00
2023-04-17T09:21:29.087Z,100.00
2023-04-17T09:22:25.851Z,100.00
2023-04-17T09:23:23.483Z,100.00
2023-04-17T09:24:34.551Z,100.00
2023-04-17T09:25:31.545Z,100.00
2023-04-17T09:26:31.989Z,100.00
2023-04-17T09:27:29.688Z,100.00
2023-04-17T09:28:26.497Z,100.00
2023-04-17T09:29:23.560Z,100.00
2023-04-17T09:30:20.485Z,100.00
2023-04-17T09:31:17.291Z,100.00
2023-04-17T09:32:16.171Z,100.00
2023-04-17T09:33:13.053Z,100.00
2023-04-17T09:34:12.586Z,100.00
2023-04-17T09:35:09.575Z,100.00
2023-04-17T09:36:22.663Z,100.00
2023-04-17T09:37:20.978Z,100.00
2023-04-17T09:38:37.198Z,100.00
2023-04-17T09:39:34.351Z,100.00
2023-04-17T09:40:42.254Z,100.00
2023-04-17T09:41:39.516Z,100.00
2023-04-17T09:43:00.423Z,100.00
2023-04-17T09:44:01.995Z,100.00
2023-04-17T09:45:19.000Z,100.00
2023-04-17T09:46:47.836Z,100.00
2023-04-17T09:47:48.021Z,100.00
2023-04-17T09:48:47.649Z,100.00
2023-04-17T09:49:50.251Z,100.00
2023-04-17T09:50:48.253Z,100.00
2023-04-17T09:51:46.200Z,100.00
2023-04-17T09:52:43.814Z,100.00
2023-04-17T09:53:40.879Z,100.00
2023-04-17T09:54:40.032Z,100.00
2023-04-17T09:55:38.885Z,100.00
2023-04-17T09:56:37.813Z,100.00
2023-04-17T09:57:34.749Z,100.00
2023-04-17T09:58:32.617Z,100.00
2023-04-17T09:59:30.984Z,100.00
2023-04-17T10:00:28.413Z,100.00
2023-04-17T10:01:26.325Z,100.00
2023-04-17T10:02:24.020Z,100.00
2023-04-17T10:03:21.337Z,100.00
2023-04-17T10:04:19.746Z,100.00
2023-04-17T10:05:17.672Z,100.00
2023-04-17T10:06:16.345Z,100.00
2023-04-17T10:07:14.593Z,100.00
2023-04-17T10:08:11.556Z,100.00
2023-04-17T10:09:08.540Z,100.00
2023-04-17T10:10:09.459Z,100.00
2023-04-17T10:11:08.668Z,100.00
2023-04-17T10:12:06.353Z,100.00
2023-04-17T10:13:08.185Z,100.00
2023-04-17T10:14:23.908Z,100.00
2023-04-17T10:15:24.086Z,100.00
2023-04-17T10:16:36.563Z,100.00
2023-04-17T10:17:36.787Z,100.00
2023-04-17T10:18:33.769Z,100.00
2023-04-17T10:19:36.553Z,100.00
2023-04-17T10:20:35.504Z,100.00
2023-04-17T10:21:32.296Z,100.00
2023-04-17T10:22:29.989Z,100.00
2023-04-17T10:23:34.871Z,100.00
2023-04-17T10:24:31.696Z,100.00
2023-04-17T10:25:29.333Z,100.00
2023-04-17T10:26:26.113Z,100.00
2023-04-17T10:27:26.223Z,100.00
2023-04-17T10:28:49.348Z,100.00
2023-04-17T10:29:52.166Z,100.00
2023-04-17T10:30:56.374Z,100.00
2023-04-17T10:32:11.258Z,100.00
2023-04-17T10:33:19.953Z,100.00
2023-04-17T10:34:35.349Z,100.00
2023-04-17T10:35:35.894Z,100.00
2023-04-17T10:36:38.386Z,100.00
2023-04-17T10:38:07.736Z,100.00
2023-04-17T10:39:15.597Z,100.00
2023-04-17T10:40:14.859Z,100.00
2023-04-17T10:41:12.418Z,100.00
2023-04-17T10:42:21.558Z,100.00
2023-04-17T10:43:25.337Z,100.00
2023-04-17T10:44:25.010Z,100.00
2023-04-17T10:45:21.808Z,100.00
2023-04-17T10:46:18.603Z,100.00
2023-04-17T10:47:19.465Z,100.00
2023-04-17T10:48:26.583Z,100.00
2023-04-17T10:49:23.564Z,100.00
2023-04-17T10:50:28.635Z,100.00
2023-04-17T10:51:28.860Z,100.00
2023-04-17T10:52:38.062Z,100.00
2023-04-17T10:54:02.005Z,100.00
2023-04-17T10:55:10.704Z,100.00
2023-04-17T10:56:12.056Z,100.00
2023-04-17T10:57:11.093Z,100.00
2023-04-17T10:58:13.673Z,100.00
2023-04-17T10:59:14.884Z,100.00
2023-04-17T11:00:13.929Z,100.00
2023-04-17T11:01:11.380Z,100.00
2023-04-17T11:02:08.380Z,100.00
2023-04-17T11:03:07.231Z,100.00
2023-04-17T11:04:05.213Z,99.24
2023-04-17T11:05:08.319Z,98.02
2023-04-17T11:06:06.450Z,99.56
2023-04-17T11:07:03.405Z,100.00
2023-04-17T11:08:00.221Z,99.49
2023-04-17T11:08:58.472Z,95.85
2023-04-17T11:09:55.535Z,94.06
2023-04-17T11:10:54.252Z,95.06
2023-04-17T11:11:51.243Z,93.83
2023-04-17T11:12:49.569Z,95.94
2023-04-17T11:13:47.761Z,98.13
2023-04-17T11:14:44.503Z,98.66
2023-04-17T11:15:41.233Z,97.57
2023-04-17T11:16:57.166Z,94.47
2023-04-17T11:17:54.628Z,93.67
2023-04-17T11:18:52.190Z,93.06
2023-04-17T11:19:49.825Z,93.30
2023-04-17T11:20:46.985Z,91.90
2023-04-17T11:21:47.442Z,89.90
2023-04-17T11:22:44.895Z,89.58
2023-04-17T11:23:51.364Z,88.60
2023-04-17T11:24:51.654Z,86.65
2023-04-17T11:25:48.504Z,86.34
2023-04-17T11:26:47.673Z,86.75
2023-04-17T11:27:44.432Z,84.44
2023-04-17T11:28:41.143Z,84.10
2023-04-17T11:29:37.914Z,81.78
2023-04-17T11:30:37.447Z,83.41
2023-04-17T11:31:34.334Z,82.52
2023-04-17T11:32:36.782Z,82.87
2023-04-17T11:33:37.061Z,83.32
2023-04-17T11:34:34.556Z,82.17
2023-04-17T11:35:33.721Z,83.05
2023-04-17T11:36:32.904Z,85.07
2023-04-17T11:37:29.680Z,84.42
2023-04-17T11:38:27.272Z,83.33
2023-04-17T11:39:30.587Z,84.74
2023-04-17T11:40:30.376Z,84.22
2023-04-17T11:41:40.290Z,84.73
2023-04-17T11:42:44.880Z,84.88
2023-04-17T11:43:41.716Z,85.13
2023-04-17T11:44:44.440Z,85.26
2023-04-17T11:45:44.027Z,85.44
2023-04-17T11:46:41.395Z,86.40
2023-04-17T11:47:38.299Z,88.71
2023-04-17T11:48:35.320Z,90.25
2023-04-17T11:49:38.611Z,91.40
2023-04-17T11:50:35.533Z,89.77
2023-04-17T11:51:32.693Z,90.69
2023-04-17T11:52:29.710Z,89.78
2023-04-17T11:53:26.639Z,89.77
2023-04-17T11:54:29.868Z,88.83
2023-04-17T11:55:33.468Z,86.88
2023-04-17T11:56:31.053Z,89.04
2023-04-17T11:57:28.174Z,87.45
2023-04-17T11:58:25.217Z,87.85
2023-04-17T11:59:33.138Z,85.36
2023-04-17T12:00:30.631Z,84.16
2023-04-17T12:01:28.870Z,82.47
2023-04-17T12:02:33.687Z,81.07
2023-04-17T12:03:35.983Z,80.91
2023-04-17T12:04:35.174Z,80.77
2023-04-17T12:05:32.416Z,79.04
2023-04-17T12:06:37.426Z,77.89
2023-04-17T12:07:34.205Z,78.24
2023-04-17T12:08:31.491Z,78.31
2023-04-17T12:09:31.843Z,78.47
2023-04-17T12:10:41.961Z,77.61